Brown Jug Corner, Indiana
Current Conditions -  °F | °C
As of 4:53 AM on Sunday 23 Nov 2014 (Local Time) from KHUF Reporting Station
Clear Clear  
Wind Chill: 44°   Ceiling: Unl
Heat Index: 49°   Visibility: 10mi
Dew Point: 40°   Wind: 12mph
Humidity: 71%   Direction: 160°SSE
Pressure: 29.89"   Gusts: NA
Location:  39.2847°N, 87.2683°W
Report Text: KHUF 230953Z 16010KT 10SM CLR 09/04 A2989 RMK AO2 SLP122 T00940044
Loading
Personal Weather Stations






























Interactive Weather Map New forecast layout! Learn more

10-Day Weather Forecast

Advertisements
Track Severe Weather on mobile